sensor_id;sensor_type;location;lat;lon;timestamp;pressure;altitude;pressure_sealevel;temperature;humidity
53960;BME280;39866;48.638;-2.020;2024-03-02T00:02:48;99044.44;;;10.80;100.00
53960;BME280;39866;48.638;-2.020;2024-03-02T00:05:19;99040.66;;;10.84;100.00
53960;BME280;39866;48.638;-2.020;2024-03-02T00:07:52;99050.34;;;11.01;100.00
53960;BME280;39866;48.638;-2.020;2024-03-02T00:10:22;99049.75;;;11.12;100.00
53960;BME280;39866;48.638;-2.020;2024-03-02T00:12:55;99054.38;;;10.93;100.00
53960;BME280;39866;48.638;-2.020;2024-03-02T00:18:04;99033.88;;;10.95;100.00
53960;BME280;39866;48.638;-2.020;2024-03-02T00:20:30;99037.53;;;11.08;100.00
53960;BME280;39866;48.638;-2.020;2024-03-02T00:23:04;99040.78;;;11.13;100.00
53960;BME280;39866;48.638;-2.020;2024-03-02T00:25:44;99036.59;;;11.09;100.00
53960;BME280;39866;48.638;-2.020;2024-03-02T00:33:22;99029.13;;;11.00;100.00
53960;BME280;39866;48.638;-2.020;2024-03-02T00:35:49;99028.78;;;11.06;100.00
53960;BME280;39866;48.638;-2.020;2024-03-02T00:38:15;99015.25;;;11.25;100.00
53960;BME280;39866;48.638;-2.020;2024-03-02T00:40:44;99019.66;;;11.10;100.00
53960;BME280;39866;48.638;-2.020;2024-03-02T00:43:42;99012.03;;;11.34;100.00
53960;BME280;39866;48.638;-2.020;2024-03-02T00:46:12;99007.94;;;11.28;100.00
53960;BME280;39866;48.638;-2.020;2024-03-02T00:48:40;99017.13;;;11.53;100.00
53960;BME280;39866;48.638;-2.020;2024-03-02T00:51:09;99023.44;;;11.52;100.00
53960;BME280;39866;48.638;-2.020;2024-03-02T00:53:35;99013.13;;;11.46;100.00
53960;BME280;39866;48.638;-2.020;2024-03-02T00:56:01;99019.22;;;11.18;100.00
53960;BME280;39866;48.638;-2.020;2024-03-02T00:58:26;99036.56;;;11.25;100.00
53960;BME280;39866;48.638;-2.020;2024-03-02T01:00:51;99020.53;;;11.10;100.00
53960;BME280;39866;48.638;-2.020;2024-03-02T01:03:17;99021.59;;;11.22;100.00
53960;BME280;39866;48.638;-2.020;2024-03-02T01:05:43;99014.75;;;11.18;100.00
53960;BME280;39866;48.638;-2.020;2024-03-02T01:08:09;99003.69;;;11.10;100.00
53960;BME280;39866;48.638;-2.020;2024-03-02T01:10:34;99006.56;;;11.21;100.00
53960;BME280;39866;48.638;-2.020;2024-03-02T01:13:00;99002.38;;;11.17;100.00
53960;BME280;39866;48.638;-2.020;2024-03-02T01:15:25;98998.31;;;11.26;100.00
53960;BME280;39866;48.638;-2.020;2024-03-02T01:17:51;98990.56;;;11.37;100.00
53960;BME280;39866;48.638;-2.020;2024-03-02T01:20:16;98999.72;;;11.17;100.00
53960;BME280;39866;48.638;-2.020;2024-03-02T01:22:42;98999.09;;;11.28;100.00
53960;BME280;39866;48.638;-2.020;2024-03-02T01:25:08;98995.06;;;11.21;100.00
53960;BME280;39866;48.638;-2.020;2024-03-02T01:27:33;99003.78;;;11.38;100.00
53960;BME280;39866;48.638;-2.020;2024-03-02T01:29:59;98991.97;;;11.28;100.00
53960;BME280;39866;48.638;-2.020;2024-03-02T01:32:25;98993.81;;;11.12;100.00
53960;BME280;39866;48.638;-2.020;2024-03-02T01:34:50;99000.16;;;11.09;100.00
53960;BME280;39866;48.638;-2.020;2024-03-02T01:37:15;98998.59;;;10.91;100.00
53960;BME280;39866;48.638;-2.020;2024-03-02T01:39:41;98988.91;;;11.20;100.00
53960;BME280;39866;48.638;-2.020;2024-03-02T01:42:06;98985.59;;;11.01;100.00
53960;BME280;39866;48.638;-2.020;2024-03-02T01:44:31;98981.34;;;10.82;100.00
53960;BME280;39866;48.638;-2.020;2024-03-02T01:46:57;98963.53;;;10.99;100.00
53960;BME280;39866;48.638;-2.020;2024-03-02T01:49:22;98978.69;;;10.82;100.00
53960;BME280;39866;48.638;-2.020;2024-03-02T01:51:48;98962.72;;;10.82;100.00
53960;BME280;39866;48.638;-2.020;2024-03-02T01:54:13;98961.16;;;10.78;100.00
53960;BME280;39866;48.638;-2.020;2024-03-02T01:56:38;98956.00;;;10.91;100.00
53960;BME280;39866;48.638;-2.020;2024-03-02T01:59:04;98951.50;;;10.91;100.00
53960;BME280;39866;48.638;-2.020;2024-03-02T02:01:29;98948.28;;;10.86;100.00
53960;BME280;39866;48.638;-2.020;2024-03-02T02:03:56;98953.06;;;10.96;100.00
53960;BME280;39866;48.638;-2.020;2024-03-02T02:06:21;98954.00;;;10.95;100.00
53960;BME280;39866;48.638;-2.020;2024-03-02T02:08:47;98946.19;;;10.91;100.00
53960;BME280;39866;48.638;-2.020;2024-03-02T02:11:15;98947.97;;;11.07;100.00
53960;BME280;39866;48.638;-2.020;2024-03-02T02:13:40;98945.78;;;10.83;100.00
53960;BME280;39866;48.638;-2.020;2024-03-02T02:16:07;98931.34;;;10.87;100.00
53960;BME280;39866;48.638;-2.020;2024-03-02T02:18:32;98938.19;;;10.91;100.00
53960;BME280;39866;48.638;-2.020;2024-03-02T02:20:57;98927.44;;;10.93;100.00
53960;BME280;39866;48.638;-2.020;2024-03-02T02:23:23;98927.09;;;10.99;100.00
53960;BME280;39866;48.638;-2.020;2024-03-02T02:25:48;98916.13;;;11.20;100.00
53960;BME280;39866;48.638;-2.020;2024-03-02T02:28:13;98913.63;;;11.16;100.00
53960;BME280;39866;48.638;-2.020;2024-03-02T02:30:39;98926.50;;;11.24;100.00
53960;BME280;39866;48.638;-2.020;2024-03-02T02:33:04;98920.72;;;11.02;100.00
53960;BME280;39866;48.638;-2.020;2024-03-02T02:35:29;98915.53;;;10.84;100.00
53960;BME280;39866;48.638;-2.020;2024-03-02T02:37:56;98897.31;;;10.93;100.00
53960;BME280;39866;48.638;-2.020;2024-03-02T02:40:22;98911.25;;;11.12;100.00
53960;BME280;39866;48.638;-2.020;2024-03-02T02:42:47;98915.84;;;11.24;100.00
53960;BME280;39866;48.638;-2.020;2024-03-02T02:45:13;98900.53;;;11.28;100.00
53960;BME280;39866;48.638;-2.020;2024-03-02T02:47:41;98917.25;;;11.15;100.00
53960;BME280;39866;48.638;-2.020;2024-03-02T02:50:10;98903.75;;;11.19;100.00
53960;BME280;39866;48.638;-2.020;2024-03-02T02:52:37;98909.38;;;11.28;100.00
53960;BME280;39866;48.638;-2.020;2024-03-02T02:55:05;98911.47;;;11.37;100.00
53960;BME280;39866;48.638;-2.020;2024-03-02T02:57:32;98909.28;;;11.30;100.00
53960;BME280;39866;48.638;-2.020;2024-03-02T03:00:02;98905.78;;;11.44;100.00
53960;BME280;39866;48.638;-2.020;2024-03-02T03:02:30;98895.50;;;11.23;100.00
53960;BME280;39866;48.638;-2.020;2024-03-02T03:04:55;98889.09;;;11.11;100.00
53960;BME280;39866;48.638;-2.020;2024-03-02T03:07:22;98883.97;;;11.37;100.00
53960;BME280;39866;48.638;-2.020;2024-03-02T03:09:48;98892.19;;;11.48;100.00
53960;BME280;39866;48.638;-2.020;2024-03-02T03:12:13;98903.03;;;11.45;100.00
53960;BME280;39866;48.638;-2.020;2024-03-02T03:14:40;98880.06;;;11.43;100.00
53960;BME280;39866;48.638;-2.020;2024-03-02T03:17:06;98881.44;;;11.35;100.00
53960;BME280;39866;48.638;-2.020;2024-03-02T03:19:33;98882.72;;;11.43;100.00
53960;BME280;39866;48.638;-2.020;2024-03-02T03:21:58;98888.28;;;11.39;100.00
53960;BME280;39866;48.638;-2.020;2024-03-02T03:24:24;98868.66;;;11.40;100.00
53960;BME280;39866;48.638;-2.020;2024-03-02T03:26:49;98872.84;;;11.30;100.00
53960;BME280;39866;48.638;-2.020;2024-03-02T03:29:14;98868.78;;;11.39;100.00
53960;BME280;39866;48.638;-2.020;2024-03-02T03:31:40;98878.16;;;11.30;100.00
53960;BME280;39866;48.638;-2.020;2024-03-02T03:34:05;98880.06;;;11.28;100.00
53960;BME280;39866;48.638;-2.020;2024-03-02T03:36:30;98889.50;;;11.34;100.00
53960;BME280;39866;48.638;-2.020;2024-03-02T03:38:55;98891.31;;;11.33;100.00
53960;BME280;39866;48.638;-2.020;2024-03-02T03:41:21;98887.28;;;11.26;100.00
53960;BME280;39866;48.638;-2.020;2024-03-02T03:43:46;98885.97;;;11.19;100.00
53960;BME280;39866;48.638;-2.020;2024-03-02T03:46:11;98878.63;;;11.08;100.00
53960;BME280;39866;48.638;-2.020;2024-03-02T03:48:37;98885.66;;;11.09;100.00
53960;BME280;39866;48.638;-2.020;2024-03-02T03:51:02;98893.69;;;11.24;100.00
53960;BME280;39866;48.638;-2.020;2024-03-02T03:53:28;98909.84;;;11.21;100.00
53960;BME280;39866;48.638;-2.020;2024-03-02T03:55:53;98893.50;;;11.27;100.00
53960;BME280;39866;48.638;-2.020;2024-03-02T03:58:18;98898.34;;;11.20;100.00
53960;BME280;39866;48.638;-2.020;2024-03-02T04:00:45;98895.09;;;11.15;100.00
53960;BME280;39866;48.638;-2.020;2024-03-02T04:03:11;98892.34;;;11.16;100.00
53960;BME280;39866;48.638;-2.020;2024-03-02T04:05:36;98890.72;;;11.28;100.00
53960;BME280;39866;48.638;-2.020;2024-03-02T04:08:01;98898.44;;;11.19;100.00
53960;BME280;39866;48.638;-2.020;2024-03-02T04:10:27;98897.09;;;11.26;100.00
53960;BME280;39866;48.638;-2.020;2024-03-02T04:12:52;98895.50;;;11.23;100.00
53960;BME280;39866;48.638;-2.020;2024-03-02T04:15:17;98894.72;;;11.21;100.00
53960;BME280;39866;48.638;-2.020;2024-03-02T04:17:44;98894.25;;;11.14;100.00
53960;BME280;39866;48.638;-2.020;2024-03-02T04:20:09;98886.66;;;11.23;100.00
53960;BME280;39866;48.638;-2.020;2024-03-02T04:22:37;98882.34;;;11.34;100.00
53960;BME280;39866;48.638;-2.020;2024-03-02T04:25:03;98886.16;;;11.16;100.00
53960;BME280;39866;48.638;-2.020;2024-03-02T04:27:30;98888.53;;;11.21;100.00
53960;BME280;39866;48.638;-2.020;2024-03-02T04:29:55;98897.56;;;11.18;100.00
53960;BME280;39866;48.638;-2.020;2024-03-02T04:32:20;98881.69;;;11.16;100.00
53960;BME280;39866;48.638;-2.020;2024-03-02T04:34:46;98884.00;;;10.93;100.00
53960;BME280;39866;48.638;-2.020;2024-03-02T04:37:11;98873.78;;;11.15;100.00
53960;BME280;39866;48.638;-2.020;2024-03-02T04:39:37;98879.28;;;11.12;100.00
53960;BME280;39866;48.638;-2.020;2024-03-02T04:42:03;98886.22;;;11.00;100.00
53960;BME280;39866;48.638;-2.020;2024-03-02T04:44:28;98886.81;;;11.20;100.00
53960;BME280;39866;48.638;-2.020;2024-03-02T04:46:53;98888.03;;;11.00;100.00
53960;BME280;39866;48.638;-2.020;2024-03-02T04:49:19;98878.34;;;11.13;100.00
53960;BME280;39866;48.638;-2.020;2024-03-02T04:51:44;98878.91;;;11.04;100.00
53960;BME280;39866;48.638;-2.020;2024-03-02T04:54:09;98879.94;;;11.01;100.00
53960;BME280;39866;48.638;-2.020;2024-03-02T04:56:35;98878.34;;;11.13;100.00
53960;BME280;39866;48.638;-2.020;2024-03-02T04:59:10;98869.03;;;11.20;100.00
53960;BME280;39866;48.638;-2.020;2024-03-02T05:01:36;98876.63;;;11.12;100.00
53960;BME280;39866;48.638;-2.020;2024-03-02T05:04:01;98889.22;;;11.24;100.00
53960;BME280;39866;48.638;-2.020;2024-03-02T05:06:27;98888.91;;;11.14;100.00
53960;BME280;39866;48.638;-2.020;2024-03-02T05:08:52;98884.44;;;11.15;100.00
53960;BME280;39866;48.638;-2.020;2024-03-02T05:11:17;98888.53;;;11.06;100.00
53960;BME280;39866;48.638;-2.020;2024-03-02T05:14:06;98899.69;;;10.97;100.00
53960;BME280;39866;48.638;-2.020;2024-03-02T05:16:37;98889.28;;;11.08;100.00
53960;BME280;39866;48.638;-2.020;2024-03-02T05:19:03;98893.69;;;10.94;100.00
53960;BME280;39866;48.638;-2.020;2024-03-02T05:21:30;98882.63;;;11.15;100.00
53960;BME280;39866;48.638;-2.020;2024-03-02T05:23:55;98881.91;;;10.98;100.00
53960;BME280;39866;48.638;-2.020;2024-03-02T05:26:20;98893.44;;;10.98;100.00
53960;BME280;39866;48.638;-2.020;2024-03-02T05:28:46;98895.84;;;11.03;100.00
53960;BME280;39866;48.638;-2.020;2024-03-02T05:31:11;98906.78;;;11.12;100.00
53960;BME280;39866;48.638;-2.020;2024-03-02T05:33:39;98897.53;;;11.04;100.00
53960;BME280;39866;48.638;-2.020;2024-03-02T05:36:05;98899.41;;;10.87;100.00
53960;BME280;39866;48.638;-2.020;2024-03-02T05:38:31;98900.03;;;11.07;100.00
53960;BME280;39866;48.638;-2.020;2024-03-02T05:40:57;98905.75;;;10.85;100.00
53960;BME280;39866;48.638;-2.020;2024-03-02T05:43:22;98905.13;;;10.96;100.00
53960;BME280;39866;48.638;-2.020;2024-03-02T05:45:47;98908.31;;;11.16;100.00
53960;BME280;39866;48.638;-2.020;2024-03-02T05:48:13;98902.91;;;10.88;100.00
53960;BME280;39866;48.638;-2.020;2024-03-02T05:50:38;98911.47;;;10.93;100.00
53960;BME280;39866;48.638;-2.020;2024-03-02T05:53:03;98914.34;;;10.90;100.00
53960;BME280;39866;48.638;-2.020;2024-03-02T05:55:29;98904.56;;;11.05;100.00
53960;BME280;39866;48.638;-2.020;2024-03-02T05:57:54;98910.56;;;11.08;100.00
53960;BME280;39866;48.638;-2.020;2024-03-02T06:00:31;98907.63;;;10.99;100.00
53960;BME280;39866;48.638;-2.020;2024-03-02T06:02:57;98898.63;;;10.85;100.00
53960;BME280;39866;48.638;-2.020;2024-03-02T06:05:22;98908.09;;;10.75;100.00
53960;BME280;39866;48.638;-2.020;2024-03-02T06:07:47;98917.88;;;10.90;100.00
53960;BME280;39866;48.638;-2.020;2024-03-02T06:10:13;98906.28;;;11.06;100.00
53960;BME280;39866;48.638;-2.020;2024-03-02T06:12:39;98919.84;;;10.87;100.00
53960;BME280;39866;48.638;-2.020;2024-03-02T06:15:04;98920.16;;;10.66;100.00
53960;BME280;39866;48.638;-2.020;2024-03-02T06:17:30;98917.72;;;10.78;100.00
53960;BME280;39866;48.638;-2.020;2024-03-02T06:19:55;98927.78;;;10.57;100.00
53960;BME280;39866;48.638;-2.020;2024-03-02T06:22:21;98925.47;;;10.66;100.00
53960;BME280;39866;48.638;-2.020;2024-03-02T06:24:48;98925.03;;;10.74;100.00
53960;BME280;39866;48.638;-2.020;2024-03-02T06:27:14;98934.72;;;10.75;100.00
53960;BME280;39866;48.638;-2.020;2024-03-02T06:29:39;98937.13;;;10.80;100.00
53960;BME280;39866;48.638;-2.020;2024-03-02T06:32:05;98928.19;;;10.65;100.00
53960;BME280;39866;48.638;-2.020;2024-03-02T06:34:30;98929.72;;;10.69;100.00
53960;BME280;39866;48.638;-2.020;2024-03-02T06:36:56;98942.63;;;10.61;100.00
53960;BME280;39866;48.638;-2.020;2024-03-02T06:39:21;98950.44;;;10.64;100.00
53960;BME280;39866;48.638;-2.020;2024-03-02T06:41:46;98953.47;;;10.58;100.00
53960;BME280;39866;48.638;-2.020;2024-03-02T06:44:12;98930.78;;;10.66;100.00
53960;BME280;39866;48.638;-2.020;2024-03-02T06:46:38;98941.34;;;10.68;100.00
53960;BME280;39866;48.638;-2.020;2024-03-02T06:49:03;98935.69;;;10.58;100.00
53960;BME280;39866;48.638;-2.020;2024-03-02T06:51:29;98943.72;;;10.73;100.00
53960;BME280;39866;48.638;-2.020;2024-03-02T06:53:54;98950.53;;;10.78;100.00
53960;BME280;39866;48.638;-2.020;2024-03-02T06:56:20;98948.66;;;10.49;100.00
53960;BME280;39866;48.638;-2.020;2024-03-02T06:58:46;98951.50;;;10.61;100.00
53960;BME280;39866;48.638;-2.020;2024-03-02T07:01:12;98945.38;;;10.59;100.00
53960;BME280;39866;48.638;-2.020;2024-03-02T07:03:37;98962.91;;;10.48;100.00
53960;BME280;39866;48.638;-2.020;2024-03-02T07:06:04;98947.03;;;10.62;100.00
53960;BME280;39866;48.638;-2.020;2024-03-02T07:08:30;98962.72;;;10.51;100.00
53960;BME280;39866;48.638;-2.020;2024-03-02T07:10:55;98969.06;;;10.80;100.00
53960;BME280;39866;48.638;-2.020;2024-03-02T07:13:21;98955.28;;;10.57;100.00
53960;BME280;39866;48.638;-2.020;2024-03-02T07:15:46;98959.22;;;10.66;100.00
53960;BME280;39866;48.638;-2.020;2024-03-02T07:18:44;98958.59;;;10.61;100.00
53960;BME280;39866;48.638;-2.020;2024-03-02T07:21:16;98964.09;;;10.74;100.00
53960;BME280;39866;48.638;-2.020;2024-03-02T07:23:41;98956.13;;;10.58;100.00
53960;BME280;39866;48.638;-2.020;2024-03-02T07:26:06;98962.78;;;10.65;100.00
53960;BME280;39866;48.638;-2.020;2024-03-02T07:28:32;98959.00;;;10.69;100.00
53960;BME280;39866;48.638;-2.020;2024-03-02T07:30:59;98945.97;;;10.64;100.00
53960;BME280;39866;48.638;-2.020;2024-03-02T07:33:25;98952.00;;;10.52;100.00
53960;BME280;39866;48.638;-2.020;2024-03-02T07:35:50;98967.63;;;10.58;100.00
53960;BME280;39866;48.638;-2.020;2024-03-02T07:38:15;98969.84;;;10.66;100.00
53960;BME280;39866;48.638;-2.020;2024-03-02T07:40:41;98974.22;;;10.67;100.00
53960;BME280;39866;48.638;-2.020;2024-03-02T07:43:07;98978.25;;;10.74;100.00
53960;BME280;39866;48.638;-2.020;2024-03-02T07:45:32;98986.41;;;10.71;100.00
53960;BME280;39866;48.638;-2.020;2024-03-02T07:47:58;98986.22;;;10.90;100.00
53960;BME280;39866;48.638;-2.020;2024-03-02T07:50:23;99000.56;;;10.87;100.00
53960;BME280;39866;48.638;-2.020;2024-03-02T07:52:48;98985.16;;;10.93;100.00
53960;BME280;39866;48.638;-2.020;2024-03-02T07:55:14;98997.34;;;10.97;100.00
53960;BME280;39866;48.638;-2.020;2024-03-02T07:57:40;99002.50;;;11.00;100.00
53960;BME280;39866;48.638;-2.020;2024-03-02T08:00:06;98996.91;;;11.04;100.00
53960;BME280;39866;48.638;-2.020;2024-03-02T08:02:31;98999.72;;;11.17;100.00
53960;BME280;39866;48.638;-2.020;2024-03-02T08:04:56;99006.09;;;11.14;100.00
53960;BME280;39866;48.638;-2.020;2024-03-02T08:07:22;99014.28;;;11.26;100.00
53960;BME280;39866;48.638;-2.020;2024-03-02T08:09:47;99016.88;;;11.27;100.00
53960;BME280;39866;48.638;-2.020;2024-03-02T08:12:13;99023.53;;;11.20;100.00
53960;BME280;39866;48.638;-2.020;2024-03-02T08:14:38;99030.13;;;11.13;100.00
53960;BME280;39866;48.638;-2.020;2024-03-02T08:17:03;99028.25;;;11.15;100.00
53960;BME280;39866;48.638;-2.020;2024-03-02T08:19:34;99022.50;;;11.23;100.00
53960;BME280;39866;48.638;-2.020;2024-03-02T08:22:00;99020.00;;;11.20;100.00
53960;BME280;39866;48.638;-2.020;2024-03-02T08:24:25;99033.78;;;11.26;100.00
53960;BME280;39866;48.638;-2.020;2024-03-02T08:26:50;99028.75;;;11.22;100.00
53960;BME280;39866;48.638;-2.020;2024-03-02T08:29:16;99032.22;;;11.38;100.00
53960;BME280;39866;48.638;-2.020;2024-03-02T08:31:41;99038.34;;;11.40;100.00
53960;BME280;39866;48.638;-2.020;2024-03-02T08:34:06;99039.00;;;11.44;100.00
53960;BME280;39866;48.638;-2.020;2024-03-02T08:36:32;99058.69;;;11.41;100.00
53960;BME280;39866;48.638;-2.020;2024-03-02T08:38:57;99052.91;;;11.49;100.00
53960;BME280;39866;48.638;-2.020;2024-03-02T08:41:23;99053.63;;;11.36;100.00
53960;BME280;39866;48.638;-2.020;2024-03-02T08:43:48;99056.03;;;11.41;100.00
53960;BME280;39866;48.638;-2.020;2024-03-02T08:46:13;99052.75;;;11.52;100.00
53960;BME280;39866;48.638;-2.020;2024-03-02T08:48:39;99053.50;;;11.54;100.00
53960;BME280;39866;48.638;-2.020;2024-03-02T08:51:04;99053.44;;;11.55;100.00
53960;BME280;39866;48.638;-2.020;2024-03-02T08:53:32;99055.44;;;11.66;100.00
53960;BME280;39866;48.638;-2.020;2024-03-02T08:55:58;99052.22;;;11.45;100.00
53960;BME280;39866;48.638;-2.020;2024-03-02T08:58:23;99054.97;;;11.74;100.00
53960;BME280;39866;48.638;-2.020;2024-03-02T09:00:48;99065.75;;;11.72;100.00
53960;BME280;39866;48.638;-2.020;2024-03-02T09:03:14;99065.78;;;11.86;100.00
53960;BME280;39866;48.638;-2.020;2024-03-02T09:05:40;99069.03;;;11.92;100.00
53960;BME280;39866;48.638;-2.020;2024-03-02T09:08:05;99068.19;;;12.05;100.00
53960;BME280;39866;48.638;-2.020;2024-03-02T09:10:30;99069.94;;;12.21;100.00
53960;BME280;39866;48.638;-2.020;2024-03-02T09:12:56;99068.31;;;12.18;100.00
53960;BME280;39866;48.638;-2.020;2024-03-02T09:15:21;99070.78;;;12.21;100.00
53960;BME280;39866;48.638;-2.020;2024-03-02T09:17:47;99067.06;;;12.24;100.00
53960;BME280;39866;48.638;-2.020;2024-03-02T09:20:12;99064.97;;;12.29;100.00
53960;BME280;39866;48.638;-2.020;2024-03-02T09:22:39;99056.59;;;12.21;100.00
53960;BME280;39866;48.638;-2.020;2024-03-02T09:25:04;99083.63;;;12.14;100.00
53960;BME280;39866;48.638;-2.020;2024-03-02T09:27:29;99090.13;;;11.80;100.00
53960;BME280;39866;48.638;-2.020;2024-03-02T09:29:55;99091.63;;;12.14;100.00
53960;BME280;39866;48.638;-2.020;2024-03-02T09:32:20;99099.06;;;12.24;100.00
53960;BME280;39866;48.638;-2.020;2024-03-02T09:34:45;99108.22;;;12.20;100.00
53960;BME280;39866;48.638;-2.020;2024-03-02T09:37:13;99107.66;;;12.14;100.00
53960;BME280;39866;48.638;-2.020;2024-03-02T09:39:38;99112.44;;;12.38;100.00
53960;BME280;39866;48.638;-2.020;2024-03-02T09:42:04;99101.44;;;12.28;100.00
53960;BME280;39866;48.638;-2.020;2024-03-02T09:44:29;99102.03;;;12.33;100.00
53960;BME280;39866;48.638;-2.020;2024-03-02T09:46:55;99109.47;;;12.43;100.00
53960;BME280;39866;48.638;-2.020;2024-03-02T09:49:21;99113.94;;;12.28;100.00
53960;BME280;39866;48.638;-2.020;2024-03-02T09:51:49;99090.78;;;12.14;100.00
53960;BME280;39866;48.638;-2.020;2024-03-02T09:54:17;99112.13;;;12.14;100.00
53960;BME280;39866;48.638;-2.020;2024-03-02T09:56:44;99102.03;;;12.33;100.00
53960;BME280;39866;48.638;-2.020;2024-03-02T09:59:09;99096.69;;;12.19;100.00
53960;BME280;39866;48.638;-2.020;2024-03-02T10:01:34;99100.03;;;12.23;100.00
53960;BME280;39866;48.638;-2.020;2024-03-02T10:04:00;99104.72;;;12.33;100.00
53960;BME280;39866;48.638;-2.020;2024-03-02T10:06:28;99101.25;;;12.03;100.00
53960;BME280;39866;48.638;-2.020;2024-03-02T10:08:55;99109.63;;;11.97;100.00
53960;BME280;39866;48.638;-2.020;2024-03-02T10:11:30;99111.06;;;12.02;100.00
53960;BME280;39866;48.638;-2.020;2024-03-02T10:16:34;99101.63;;;12.11;100.00
53960;BME280;39866;48.638;-2.020;2024-03-02T10:19:15;99094.97;;;12.18;100.00
53960;BME280;39866;48.638;-2.020;2024-03-02T10:21:40;99094.47;;;12.11;100.00
53960;BME280;39866;48.638;-2.020;2024-03-02T10:24:07;99085.38;;;12.30;100.00
53960;BME280;39866;48.638;-2.020;2024-03-02T10:26:33;99095.94;;;12.46;100.00
53960;BME280;39866;48.638;-2.020;2024-03-02T10:28:58;99097.84;;;12.29;100.00
53960;BME280;39866;48.638;-2.020;2024-03-02T10:31:25;99098.22;;;12.23;100.00
53960;BME280;39866;48.638;-2.020;2024-03-02T10:33:57;99110.03;;;12.19;100.00
53960;BME280;39866;48.638;-2.020;2024-03-02T10:36:22;99110.19;;;12.02;100.00
53960;BME280;39866;48.638;-2.020;2024-03-02T10:38:48;99107.66;;;12.29;100.00
53960;BME280;39866;48.638;-2.020;2024-03-02T10:41:20;99120.81;;;12.32;100.00
53960;BME280;39866;48.638;-2.020;2024-03-02T10:43:48;99120.16;;;12.43;100.00
53960;BME280;39866;48.638;-2.020;2024-03-02T10:46:14;99116.91;;;12.52;100.00
53960;BME280;39866;48.638;-2.020;2024-03-02T10:48:44;99115.75;;;12.56;100.00
53960;BME280;39866;48.638;-2.020;2024-03-02T10:51:11;99124.53;;;12.44;100.00
53960;BME280;39866;48.638;-2.020;2024-03-02T10:53:36;99130.75;;;12.58;100.00
53960;BME280;39866;48.638;-2.020;2024-03-02T10:56:04;99139.00;;;12.39;100.00
53960;BME280;39866;48.638;-2.020;2024-03-02T10:58:33;99135.41;;;12.55;100.00
53960;BME280;39866;48.638;-2.020;2024-03-02T11:01:03;99138.63;;;12.60;100.00
53960;BME280;39866;48.638;-2.020;2024-03-02T11:03:35;99141.31;;;12.46;100.00
53960;BME280;39866;48.638;-2.020;2024-03-02T11:06:02;99147.03;;;12.54;100.00
53960;BME280;39866;48.638;-2.020;2024-03-02T11:08:31;99143.78;;;12.63;100.00
53960;BME280;39866;48.638;-2.020;2024-03-02T11:11:04;99145.13;;;12.56;100.00
53960;BME280;39866;48.638;-2.020;2024-03-02T11:13:32;99153.97;;;12.56;100.00
53960;BME280;39866;48.638;-2.020;2024-03-02T11:16:12;99160.56;;;12.65;100.00
53960;BME280;39866;48.638;-2.020;2024-03-02T11:18:41;99167.72;;;12.64;100.00
53960;BME280;39866;48.638;-2.020;2024-03-02T11:21:07;99165.50;;;12.85;100.00
53960;BME280;39866;48.638;-2.020;2024-03-02T11:23:34;99158.09;;;12.91;100.00
53960;BME280;39866;48.638;-2.020;2024-03-02T11:26:19;99167.22;;;13.01;100.00
53960;BME280;39866;48.638;-2.020;2024-03-02T11:28:45;99163.31;;;13.06;100.00
53960;BME280;39866;48.638;-2.020;2024-03-02T11:31:11;99167.69;;;13.07;100.00
53960;BME280;39866;48.638;-2.020;2024-03-02T11:33:36;99166.25;;;13.02;100.00
53960;BME280;39866;48.638;-2.020;2024-03-02T11:36:02;99165.63;;;12.98;100.00
53960;BME280;39866;48.638;-2.020;2024-03-02T11:38:29;99165.44;;;12.87;100.00
53960;BME280;39866;48.638;-2.020;2024-03-02T11:40:56;99166.66;;;12.81;100.00
53960;BME280;39866;48.638;-2.020;2024-03-02T11:43:21;99162.28;;;12.80;100.00
53960;BME280;39866;48.638;-2.020;2024-03-02T11:45:46;99164.38;;;12.75;100.00
53960;BME280;39866;48.638;-2.020;2024-03-02T11:48:15;99155.50;;;12.89;100.00
53960;BME280;39866;48.638;-2.020;2024-03-02T11:50:49;99154.66;;;12.88;100.00
53960;BME280;39866;48.638;-2.020;2024-03-02T11:53:15;99151.41;;;12.83;100.00
53960;BME280;39866;48.638;-2.020;2024-03-02T11:55:41;99157.88;;;12.94;100.00
53960;BME280;39866;48.638;-2.020;2024-03-02T11:58:07;99167.63;;;12.80;100.00
53960;BME280;39866;48.638;-2.020;2024-03-02T12:00:33;99163.69;;;13.00;100.00
53960;BME280;39866;48.638;-2.020;2024-03-02T12:05:32;99167.44;;;12.83;100.00
53960;BME280;39866;48.638;-2.020;2024-03-02T12:07:58;99164.28;;;12.91;100.00
53960;BME280;39866;48.638;-2.020;2024-03-02T12:10:25;99156.56;;;12.86;100.00
53960;BME280;39866;48.638;-2.020;2024-03-02T12:12:57;99169.63;;;12.91;100.00
53960;BME280;39866;48.638;-2.020;2024-03-02T12:15:26;99167.91;;;12.90;100.00
53960;BME280;39866;48.638;-2.020;2024-03-02T12:17:56;99162.84;;;12.85;100.00
53960;BME280;39866;48.638;-2.020;2024-03-02T12:20:23;99161.91;;;12.86;100.00
53960;BME280;39866;48.638;-2.020;2024-03-02T12:22:53;99161.06;;;12.86;100.00
53960;BME280;39866;48.638;-2.020;2024-03-02T12:25:22;99165.72;;;12.68;100.00
53960;BME280;39866;48.638;-2.020;2024-03-02T12:27:50;99165.69;;;12.97;100.00
53960;BME280;39866;48.638;-2.020;2024-03-02T12:30:17;99164.97;;;12.95;100.00
53960;BME280;39866;48.638;-2.020;2024-03-02T12:32:42;99160.06;;;13.01;100.00
53960;BME280;39866;48.638;-2.020;2024-03-02T12:35:10;99152.22;;;13.12;100.00
53960;BME280;39866;48.638;-2.020;2024-03-02T12:37:49;99169.63;;;12.91;96.47
53960;BME280;39866;48.638;-2.020;2024-03-02T12:40:16;99157.19;;;13.04;95.15
53960;BME280;39866;48.638;-2.020;2024-03-02T12:42:46;99162.44;;;13.06;98.67
53960;BME280;39866;48.638;-2.020;2024-03-02T12:45:12;99165.28;;;13.17;98.59
53960;BME280;39866;48.638;-2.020;2024-03-02T12:47:39;99166.13;;;13.18;99.44
53960;BME280;39866;48.638;-2.020;2024-03-02T12:50:05;99163.47;;;13.18;94.28
53960;BME280;39866;48.638;-2.020;2024-03-02T12:52:31;99170.66;;;13.31;93.91